Time;durP1;ratioP1;P1;durP2;ratioP2;P2;SDS_P1;SDS_P2;PMS_P1;PMS_P2;Temp;Humidity;BMP_temperature;BMP_pressure;BME280_temperature;BME280_humidity;BME280_pressure;Samples;Min_cycle;Max_cycle;Signal;HPM_P1;HPM_P2
2023/04/23 00:01:57;;;;;;;3.80;1.63;;;20.00;99.90;;;;;;5092521;28;20178;-69
2023/04/23 00:04:28;;;;;;;2.47;1.50;;;20.20;99.90;;;;;;5092295;28;20175;-71
2023/04/23 00:06:56;;;;;;;3.07;1.50;;;20.70;99.90;;;;;;5092124;28;20215;-71
2023/04/23 00:09:26;;;;;;;2.60;1.43;;;21.30;99.90;;;;;;5092454;28;20644;-70
2023/04/23 00:11:55;;;;;;;3.70;1.47;;;21.60;99.90;;;;;;5092426;28;20175;-70
2023/04/23 00:14:23;;;;;;;5.67;1.60;;;22.30;99.90;;;;;;5091811;28;20649;-71
2023/04/23 00:16:51;;;;;;;5.73;1.37;;;22.90;99.90;;;;;;5092311;28;20179;-70
2023/04/23 00:19:19;;;;;;;5.30;1.27;;;23.10;99.90;;;;;;5092366;28;20184;-71
2023/04/23 00:21:47;;;;;;;4.20;1.20;;;23.40;99.90;;;;;;5095842;28;20230;-71
2023/04/23 00:24:15;;;;;;;2.07;1.00;;;24.60;99.90;;;;;;5090605;28;20871;-70
2023/04/23 00:26:43;;;;;;;2.80;1.10;;;26.10;99.90;;;;;;5092184;28;20215;-71
2023/04/23 00:29:10;;;;;;;2.90;1.37;;;27.30;99.90;;;;;;5091733;28;20179;-70
2023/04/23 00:31:38;;;;;;;3.07;1.40;;;28.10;99.90;;;;;;5097276;28;20185;-69
2023/04/23 00:34:06;;;;;;;1.17;0.70;;;28.20;99.90;;;;;;5111106;28;20730;-70
2023/04/23 00:36:34;;;;;;;1.67;1.00;;;28.20;99.90;;;;;;5111758;28;20186;-71
2023/04/23 00:39:01;;;;;;;2.43;1.33;;;27.20;99.90;;;;;;5112358;28;20181;-69
2023/04/23 00:41:29;;;;;;;2.73;1.00;;;26.40;99.90;;;;;;5095735;28;20316;-70
2023/04/23 00:43:58;;;;;;;3.17;1.13;;;26.20;99.90;;;;;;5091472;28;20254;-70
2023/04/23 00:46:29;;;;;;;1.80;1.03;;;26.00;99.90;;;;;;5091852;28;20757;-69
2023/04/23 00:48:57;;;;;;;5.90;1.37;;;26.70;99.90;;;;;;5092098;28;20187;-70
2023/04/23 00:51:25;;;;;;;2.60;0.93;;;27.90;99.90;;;;;;5103010;28;20247;-70
2023/04/23 00:53:53;;;;;;;3.53;1.40;;;28.60;99.90;;;;;;5091967;28;20167;-70
2023/04/23 00:56:22;;;;;;;2.13;1.33;;;28.10;99.90;;;;;;5091619;28;20186;-71
2023/04/23 00:58:52;;;;;;;6.13;1.30;;;27.10;99.90;;;;;;5091316;28;20175;-71
2023/04/23 01:01:21;;;;;;;4.37;1.13;;;26.90;99.90;;;;;;5091601;28;20645;-71
2023/04/23 01:03:52;;;;;;;4.37;1.00;;;27.20;99.90;;;;;;5091764;28;20175;-70
2023/04/23 01:06:20;;;;;;;5.57;1.67;;;28.00;99.90;;;;;;5091167;28;20229;-70
2023/04/23 01:08:48;;;;;;;5.33;1.10;;;27.70;99.90;;;;;;5091742;28;20178;-70
2023/04/23 01:11:16;;;;;;;3.90;1.00;;;27.60;99.90;;;;;;5091562;28;20172;-70
2023/04/23 01:13:44;;;;;;;3.00;1.23;;;27.90;99.90;;;;;;5091176;28;20172;-71
2023/04/23 01:16:15;;;;;;;4.80;1.40;;;28.50;99.90;;;;;;5104187;28;20183;-71
2023/04/23 01:18:43;;;;;;;2.30;1.00;;;29.00;99.90;;;;;;5111677;28;20257;-70
2023/04/23 01:21:11;;;;;;;4.13;1.13;;;28.80;99.90;;;;;;5091193;28;20646;-71
2023/04/23 01:23:40;;;;;;;2.08;0.98;;;29.30;99.90;;;;;;5091713;28;20171;-72
2023/04/23 01:26:09;;;;;;;2.55;0.85;;;30.20;99.90;;;;;;5101394;28;20234;-70
2023/04/23 01:28:37;;;;;;;3.90;1.02;;;30.00;99.90;;;;;;5099273;28;20578;-70
2023/04/23 01:31:05;;;;;;;1.58;0.80;;;29.80;99.90;;;;;;5095201;28;20191;-71
2023/04/23 01:33:34;;;;;;;2.00;0.73;;;30.10;99.90;;;;;;5095569;28;20187;-72
2023/04/23 01:36:03;;;;;;;5.75;1.13;;;30.30;99.90;;;;;;5109355;28;20189;-71
2023/04/23 01:38:32;;;;;;;4.15;0.98;;;29.80;99.90;;;;;;5106799;28;20187;-71
2023/04/23 01:41:00;;;;;;;1.27;0.90;;;29.80;99.90;;;;;;5095038;28;20175;-70
2023/04/23 01:43:29;;;;;;;4.57;0.70;;;30.00;99.90;;;;;;5094826;28;20237;-72
2023/04/23 01:45:57;;;;;;;2.20;1.13;;;30.20;99.90;;;;;;5095337;28;20202;-71
2023/04/23 01:48:25;;;;;;;2.25;0.70;;;29.40;99.90;;;;;;5095103;28;20171;-70
2023/04/23 01:50:53;;;;;;;5.20;1.40;;;28.50;99.90;;;;;;5093207;28;20622;-70
2023/04/23 01:53:21;;;;;;;2.50;1.10;;;27.40;99.90;;;;;;5094784;28;20179;-70
2023/04/23 01:55:51;;;;;;;9.90;1.10;;;26.70;99.90;;;;;;5094925;28;20576;-70
2023/04/23 01:58:19;;;;;;;3.90;1.13;;;26.30;99.90;;;;;;5093197;28;20195;-71
2023/04/23 02:00:47;;;;;;;8.43;0.97;;;25.70;99.90;;;;;;5094918;28;20190;-71
2023/04/23 02:03:15;;;;;;;1.87;0.83;;;25.30;99.90;;;;;;5094860;28;20599;-72
2023/04/23 02:05:43;;;;;;;2.37;0.90;;;25.10;99.90;;;;;;5094247;28;20743;-71
2023/04/23 02:08:11;;;;;;;2.10;0.77;;;25.40;99.90;;;;;;5094738;28;20183;-71
2023/04/23 02:10:39;;;;;;;3.40;0.93;;;26.30;99.90;;;;;;5109377;28;20183;-71
2023/04/23 02:13:07;;;;;;;2.00;0.90;;;26.80;99.90;;;;;;5109423;28;20215;-70
2023/04/23 02:15:36;;;;;;;3.17;1.00;;;27.10;99.90;;;;;;5094632;28;20254;-71
2023/04/23 02:18:05;;;;;;;2.03;0.80;;;26.60;99.90;;;;;;5094557;28;20598;-70
2023/04/23 02:20:37;;;;;;;4.17;0.80;;;26.60;99.90;;;;;;5094075;28;20253;-71
2023/04/23 02:23:05;;;;;;;2.80;0.90;;;26.30;99.90;;;;;;5094323;28;20215;-71
2023/04/23 02:25:33;;;;;;;3.87;0.97;;;26.00;99.90;;;;;;5095372;28;20255;-72
2023/04/23 02:28:05;;;;;;;3.00;0.90;;;25.60;99.90;;;;;;5100047;28;20187;-71
2023/04/23 02:30:33;;;;;;;6.33;1.10;;;25.30;99.90;;;;;;5105288;28;20187;-72
2023/04/23 02:33:02;;;;;;;4.60;0.80;;;25.10;99.90;;;;;;5099868;28;20187;-72
2023/04/23 02:35:30;;;;;;;7.97;1.07;;;25.10;99.90;;;;;;5114017;28;20186;-72
2023/04/23 02:37:58;;;;;;;4.40;0.87;;;25.10;99.90;;;;;;5112904;28;20642;-72
2023/04/23 02:40:26;;;;;;;2.97;0.90;;;25.40;99.90;;;;;;5102557;27;20190;-73
2023/04/23 02:42:54;;;;;;;3.90;1.20;;;25.70;99.90;;;;;;5093704;28;20202;-73
2023/04/23 02:45:22;;;;;;;2.00;0.87;;;26.50;99.90;;;;;;5093870;28;20183;-71
2023/04/23 02:47:52;;;;;;;3.90;1.13;;;27.10;99.90;;;;;;5093804;28;20920;-70
2023/04/23 02:50:20;;;;;;;3.10;1.00;;;27.70;99.90;;;;;;5097454;28;20190;-70
2023/04/23 02:52:48;;;;;;;2.83;1.00;;;28.50;99.90;;;;;;5114074;28;20323;-71
2023/04/23 02:55:16;;;;;;;2.50;0.80;;;28.30;99.90;;;;;;5111803;28;20227;-72
2023/04/23 02:57:44;;;;;;;3.73;1.00;;;28.60;99.90;;;;;;5093367;28;20236;-70
2023/04/23 03:00:14;;;;;;;4.43;1.20;;;28.90;99.90;;;;;;5111662;28;20183;-73
2023/04/23 03:02:41;;;;;;;1.30;0.70;;;29.50;99.90;;;;;;5110152;28;20677;-71
2023/04/23 03:05:09;;;;;;;7.82;1.77;;;30.00;99.90;;;;;;5093335;28;20167;-73
2023/04/23 03:07:37;;;;;;;3.75;1.10;;;30.30;99.90;;;;;;5108900;28;20237;-72
2023/04/23 03:10:06;;;;;;;2.30;0.93;;;28.90;99.90;;;;;;5093364;28;20175;-70
2023/04/23 03:12:34;;;;;;;5.13;1.40;;;27.80;99.90;;;;;;5092901;28;20183;-71
2023/04/23 03:15:02;;;;;;;2.33;1.20;;;27.50;99.90;;;;;;5093359;28;20239;-72
2023/04/23 03:17:30;;;;;;;6.03;1.10;;;28.00;99.90;;;;;;5113661;28;20191;-71
2023/04/23 03:19:57;;;;;;;3.30;1.13;;;28.30;99.90;;;;;;5117343;28;20205;-71
2023/04/23 03:22:25;;;;;;;0.90;0.73;;;28.20;99.90;;;;;;5117627;28;20171;-71
2023/04/23 03:24:53;;;;;;;3.77;0.90;;;28.30;99.90;;;;;;5114878;28;20238;-72
2023/04/23 03:27:21;;;;;;;1.87;0.60;;;28.50;99.90;;;;;;5103783;28;20290;-72
2023/04/23 03:29:48;;;;;;;1.80;0.50;;;29.10;99.90;;;;;;5114741;28;20173;-71
2023/04/23 03:32:16;;;;;;;1.02;0.80;;;29.10;99.90;;;;;;5112842;28;20217;-72
2023/04/23 03:34:44;;;;;;;1.67;0.70;;;29.40;99.90;;;;;;5092562;28;20512;-72
2023/04/23 03:37:12;;;;;;;1.52;0.70;;;29.50;99.90;;;;;;5093037;28;20171;-73
2023/04/23 03:39:40;;;;;;;1.77;0.63;;;29.70;99.90;;;;;;5092883;28;20600;-72
2023/04/23 03:42:08;;;;;;;1.80;0.77;;;29.80;99.90;;;;;;5092528;28;20179;-72
2023/04/23 03:44:36;;;;;;;2.67;0.63;;;29.50;99.90;;;;;;5092829;28;20179;-72
2023/04/23 03:47:03;;;;;;;4.23;0.70;;;28.80;99.90;;;;;;5092888;28;20272;-72
2023/04/23 03:49:31;;;;;;;6.07;0.90;;;28.30;99.90;;;;;;5090379;28;20233;-72
2023/04/23 03:51:59;;;;;;;3.80;1.43;;;27.70;99.90;;;;;;5092663;28;20179;-72
2023/04/23 03:54:27;;;;;;;2.73;1.00;;;26.90;99.90;;;;;;5092682;28;20167;-72
2023/04/23 03:56:56;;;;;;;3.47;1.40;;;26.40;99.90;;;;;;5092174;28;20253;-73
2023/04/23 03:59:24;;;;;;;4.40;1.27;;;25.90;99.90;;;;;;5091374;28;20261;-72
2023/04/23 04:01:52;;;;;;;3.33;1.03;;;25.60;99.90;;;;;;5092570;28;20214;-73
2023/04/23 04:04:19;;;;;;;5.13;1.30;;;25.60;99.90;;;;;;5093590;28;20179;-72
2023/04/23 04:06:47;;;;;;;3.57;1.00;;;26.40;99.90;;;;;;5093074;28;20219;-71
2023/04/23 04:09:15;;;;;;;2.93;1.10;;;27.50;99.90;;;;;;5093631;28;20529;-71
2023/04/23 04:11:43;;;;;;;2.33;0.90;;;27.70;99.90;;;;;;5093247;28;20179;-73
2023/04/23 04:14:11;;;;;;;2.80;0.90;;;27.60;99.90;;;;;;5093578;28;20271;-72
2023/04/23 04:16:39;;;;;;;3.40;1.60;;;27.20;99.90;;;;;;5093430;28;20599;-72
2023/04/23 04:19:07;;;;;;;6.43;1.23;;;26.50;99.90;;;;;;5093594;28;20224;-72
2023/04/23 04:21:35;;;;;;;3.40;1.10;;;26.20;99.90;;;;;;5093221;28;20187;-71
2023/04/23 04:24:03;;;;;;;3.77;2.07;;;25.90;99.90;;;;;;5093227;28;20262;-72
2023/04/23 04:26:33;;;;;;;3.40;1.10;;;25.40;99.90;;;;;;5093160;28;20263;-71
2023/04/23 04:29:01;;;;;;;2.47;1.50;;;25.10;99.90;;;;;;5093449;28;20172;-72
2023/04/23 04:31:29;;;;;;;1.90;1.17;;;25.70;99.90;;;;;;5092954;28;20180;-71
2023/04/23 04:33:58;;;;;;;3.27;1.20;;;26.30;99.90;;;;;;5093118;28;20179;-73
2023/04/23 04:36:27;;;;;;;9.20;2.10;;;26.90;99.90;;;;;;5093168;28;20183;-73
2023/04/23 04:38:57;;;;;;;7.17;1.30;;;27.10;99.90;;;;;;5093282;28;20178;-73
2023/04/23 04:41:28;;;;;;;2.70;1.20;;;27.30;99.90;;;;;;5093101;28;20186;-73
2023/04/23 04:43:57;;;;;;;4.33;1.40;;;26.90;99.90;;;;;;5093171;28;20177;-72
2023/04/23 04:46:27;;;;;;;2.30;1.33;;;26.20;99.90;;;;;;5092983;28;20215;-73
2023/04/23 04:48:55;;;;;;;2.60;1.30;;;25.30;99.90;;;;;;5093086;28;20198;-73
2023/04/23 04:51:23;;;;;;;3.63;1.50;;;24.90;99.90;;;;;;5093019;28;20626;-74
2023/04/23 04:53:51;;;;;;;2.97;1.67;;;24.80;99.90;;;;;;5093156;28;20178;-71
2023/04/23 04:56:19;;;;;;;2.50;1.20;;;24.80;99.90;;;;;;5090115;28;20187;-72
2023/04/23 04:58:47;;;;;;;3.27;1.53;;;25.40;99.90;;;;;;5101200;28;20214;-74
2023/04/23 05:01:14;;;;;;;3.93;1.47;;;25.90;99.90;;;;;;5091867;28;20240;-75
2023/04/23 05:03:42;;;;;;;8.13;2.60;;;26.20;99.90;;;;;;5095113;28;20262;-72
2023/04/23 05:06:10;;;;;;;3.57;2.00;;;26.20;99.90;;;;;;5095906;28;20238;-74
2023/04/23 05:08:38;;;;;;;4.97;2.30;;;25.80;99.90;;;;;;5095776;28;20180;-74
2023/04/23 05:11:06;;;;;;;4.43;1.63;;;25.00;99.90;;;;;;5095438;28;20187;-74
2023/04/23 05:13:34;;;;;;;3.33;2.20;;;24.30;99.90;;;;;;5095686;28;20163;-73
2023/04/23 05:19:24;;;;;;;8.93;2.50;;;23.90;99.90;;;;;;5095206;28;20187;-70
2023/04/23 05:21:52;;;;;;;3.87;2.50;;;23.80;99.90;;;;;;5095655;28;20244;-74
2023/04/23 05:24:19;;;;;;;6.90;1.93;;;23.60;99.90;;;;;;5094881;28;20218;-72
2023/04/23 05:26:47;;;;;;;4.03;2.00;;;23.40;99.90;;;;;;5095544;28;20218;-72
2023/04/23 05:29:18;;;;;;;3.17;1.93;;;23.10;99.90;;;;;;5095426;28;20176;-71
2023/04/23 05:31:46;;;;;;;4.53;2.10;;;23.20;99.90;;;;;;5094989;28;20557;-73
2023/04/23 05:34:13;;;;;;;5.77;2.20;;;23.30;99.90;;;;;;5095269;28;20678;-73
2023/04/23 05:36:41;;;;;;;3.93;2.37;;;23.30;99.90;;;;;;5095284;28;20590;-72
2023/04/23 05:39:09;;;;;;;9.33;2.70;;;23.50;99.90;;;;;;5094678;28;20272;-73
2023/04/23 05:41:36;;;;;;;4.10;2.50;;;23.70;99.90;;;;;;5095323;28;20259;-72
2023/04/23 05:44:04;;;;;;;7.23;2.70;;;23.80;99.90;;;;;;5095149;28;20178;-72
2023/04/23 05:46:35;;;;;;;6.47;2.63;;;23.70;99.90;;;;;;5113289;28;20238;-73
2023/04/23 05:49:03;;;;;;;5.17;2.60;;;23.60;99.90;;;;;;5114729;28;20181;-76
2023/04/23 05:51:31;;;;;;;4.70;2.10;;;23.60;99.90;;;;;;5115394;28;20182;-73
2023/04/23 05:53:59;;;;;;;5.23;1.87;;;23.70;99.90;;;;;;5114915;27;20224;-74
2023/04/23 05:56:26;;;;;;;5.20;2.30;;;23.70;99.90;;;;;;5113937;28;20182;-73
2023/04/23 05:58:54;;;;;;;7.77;2.60;;;23.70;99.90;;;;;;5115165;28;20170;-74
2023/04/23 06:01:22;;;;;;;2.90;1.60;;;23.70;99.90;;;;;;5114804;28;20183;-73
2023/04/23 06:03:51;;;;;;;4.60;1.97;;;23.50;99.90;;;;;;5115089;28;20189;-73
2023/04/23 06:06:18;;;;;;;3.37;1.97;;;23.50;99.90;;;;;;5115058;28;20218;-73
2023/04/23 06:08:46;;;;;;;3.37;1.90;;;23.40;99.90;;;;;;5113265;28;20220;-73
2023/04/23 06:11:14;;;;;;;4.83;2.30;;;23.20;99.90;;;;;;5114999;28;20181;-73
2023/04/23 06:13:42;;;;;;;4.33;2.20;;;23.20;99.90;;;;;;5112883;28;20178;-72
2023/04/23 06:16:09;;;;;;;5.00;2.63;;;22.90;99.90;;;;;;5114253;28;20822;-74
2023/04/23 06:18:38;;;;;;;4.87;2.43;;;22.70;99.90;;;;;;5113216;28;20192;-73
2023/04/23 06:21:06;;;;;;;6.73;3.10;;;22.60;99.90;;;;;;5114622;28;20231;-72
2023/04/23 06:23:34;;;;;;;6.57;2.90;;;22.50;99.90;;;;;;5112829;28;20234;-70
2023/04/23 06:26:03;;;;;;;4.77;2.90;;;22.40;99.90;;;;;;5114402;28;20636;-73
2023/04/23 06:28:31;;;;;;;5.93;2.87;;;22.30;99.90;;;;;;5114167;28;20187;-73
2023/04/23 06:30:59;;;;;;;7.60;3.10;;;22.30;99.90;;;;;;5114148;28;20173;-72
2023/04/23 06:33:26;;;;;;;4.50;3.13;;;22.20;99.90;;;;;;5114549;28;20166;-72
2023/04/23 06:35:54;;;;;;;7.23;3.27;;;22.10;99.90;;;;;;5114432;28;20181;-72
2023/04/23 06:38:22;;;;;;;6.03;3.50;;;22.10;99.90;;;;;;5113986;28;20184;-72
2023/04/23 06:40:50;;;;;;;6.27;2.87;;;22.10;99.90;;;;;;5114052;28;20649;-72
2023/04/23 06:43:18;;;;;;;4.67;3.00;;;22.00;99.90;;;;;;5114384;28;20290;-73
2023/04/23 06:45:46;;;;;;;4.60;2.83;;;21.90;99.90;;;;;;5113707;28;20681;-73
2023/04/23 06:48:13;;;;;;;6.13;3.27;;;21.90;99.90;;;;;;5114385;28;20205;-73
2023/04/23 06:50:42;;;;;;;2.50;2.30;;;21.80;99.90;;;;;;5114008;28;20182;-72
2023/04/23 06:53:09;;;;;;;5.37;2.50;;;21.70;99.90;;;;;;5113699;28;20181;-73
2023/04/23 07:02:21;;;;;;;3.90;2.40;;;20.80;99.90;;;;;;5112759;28;20188;-72
2023/04/23 07:04:49;;;;;;;3.03;2.47;;;20.60;99.90;;;;;;5113870;28;20197;-72
2023/04/23 07:07:17;;;;;;;4.97;2.53;;;20.50;99.90;;;;;;5113679;28;20218;-72
2023/04/23 07:09:44;;;;;;;3.63;2.53;;;20.40;99.90;;;;;;5111999;28;20653;-70
2023/04/23 07:12:12;;;;;;;2.93;2.63;;;20.30;99.90;;;;;;5113674;28;20191;-73
2023/04/23 07:14:40;;;;;;;4.33;2.47;;;20.30;99.90;;;;;;5113659;28;20174;-71
2023/04/23 07:17:09;;;;;;;6.60;2.73;;;20.20;99.90;;;;;;5113154;28;20656;-72
2023/04/23 07:19:37;;;;;;;4.57;2.50;;;20.10;99.90;;;;;;5113525;28;20189;-73
2023/04/23 07:22:05;;;;;;;3.70;2.83;;;20.00;99.90;;;;;;5112117;28;20166;-73
2023/04/23 07:24:33;;;;;;;10.87;3.23;;;20.00;99.90;;;;;;5111307;28;20232;-73
2023/04/23 07:27:01;;;;;;;6.67;3.70;;;20.10;99.90;;;;;;5112531;28;20678;-72
2023/04/23 07:29:29;;;;;;;8.10;3.73;;;20.00;99.90;;;;;;5112933;28;20174;-70
2023/04/23 07:31:57;;;;;;;7.50;4.17;;;19.90;99.90;;;;;;5112441;28;20253;-73
2023/04/23 07:34:25;;;;;;;5.20;3.73;;;19.80;99.90;;;;;;5118584;28;20175;-76
2023/04/23 07:36:55;;;;;;;5.00;3.70;;;19.70;99.90;;;;;;5116448;28;20173;-74
2023/04/23 07:39:22;;;;;;;6.53;4.00;;;19.70;99.90;;;;;;5111883;28;20201;-73
2023/04/23 07:41:50;;;;;;;6.10;4.03;;;19.60;99.90;;;;;;5115511;28;20183;-70
2023/04/23 07:44:18;;;;;;;8.60;5.00;;;19.60;99.90;;;;;;5118052;28;20189;-71
2023/04/23 07:46:46;;;;;;;6.30;4.93;;;19.50;99.90;;;;;;5114948;28;20212;-72
2023/04/23 07:49:15;;;;;;;5.60;4.57;;;19.50;99.90;;;;;;5118078;28;20206;-74
2023/04/23 07:51:42;;;;;;;6.63;4.47;;;19.50;99.90;;;;;;5112821;28;20171;-73
2023/04/23 07:54:10;;;;;;;8.17;5.10;;;19.50;99.90;;;;;;5112327;28;20630;-72
2023/04/23 07:56:38;;;;;;;6.60;4.80;;;19.60;99.90;;;;;;5112467;28;20180;-74
2023/04/23 07:59:06;;;;;;;9.53;5.27;;;19.50;99.90;;;;;;5112251;28;20650;-71
2023/04/23 08:01:34;;;;;;;8.60;4.77;;;19.50;99.90;;;;;;5111882;28;20183;-73
2023/04/23 08:04:02;;;;;;;7.97;6.17;;;19.50;99.90;;;;;;5112099;28;20205;-72
2023/04/23 08:06:32;;;;;;;10.57;6.50;;;19.50;99.90;;;;;;5112017;28;20272;-74
2023/04/23 08:09:05;;;;;;;10.20;7.00;;;19.40;99.90;;;;;;5111857;28;20696;-72
2023/04/23 08:11:33;;;;;;;11.67;7.17;;;19.40;99.90;;;;;;5112367;28;20195;-73
2023/04/23 08:14:01;;;;;;;8.83;5.67;;;19.40;99.90;;;;;;5111994;28;20638;-74
2023/04/23 08:16:29;;;;;;;12.37;6.00;;;19.30;99.90;;;;;;5111812;28;20312;-72
2023/04/23 08:18:57;;;;;;;11.87;6.60;;;19.30;99.90;;;;;;5111925;28;20213;-73
2023/04/23 08:21:26;;;;;;;7.63;6.07;;;19.30;99.90;;;;;;5112083;28;20224;-75
2023/04/23 08:23:54;;;;;;;6.30;5.67;;;19.30;99.90;;;;;;5110245;28;20206;-73
2023/04/23 08:26:22;;;;;;;7.90;6.23;;;19.30;99.90;;;;;;5111682;28;20274;-73
2023/04/23 08:28:50;;;;;;;8.63;6.37;;;19.40;99.90;;;;;;5110531;28;20184;-72
2023/04/23 08:31:18;;;;;;;6.60;6.00;;;19.40;99.90;;;;;;5110442;28;20700;-73
2023/04/23 08:33:46;;;;;;;6.87;5.63;;;19.40;99.90;;;;;;5095949;28;20209;-74
2023/04/23 08:36:14;;;;;;;9.80;6.63;;;19.40;99.90;;;;;;5111701;28;20655;-72
2023/04/23 08:38:42;;;;;;;6.70;5.80;;;19.40;99.90;;;;;;5108083;28;20182;-70
2023/04/23 08:41:14;;;;;;;7.57;6.30;;;19.40;99.90;;;;;;5098779;28;20559;-70
2023/04/23 08:43:51;;;;;;;9.50;5.30;;;19.40;99.90;;;;;;5099927;28;20178;-69
2023/04/23 08:46:21;;;;;;;10.13;6.07;;;19.40;99.90;;;;;;5108619;28;20253;-71
2023/04/23 08:48:51;;;;;;;7.10;5.00;;;19.40;99.90;;;;;;5102107;28;20196;-72
2023/04/23 08:51:21;;;;;;;7.77;5.07;;;19.40;99.90;;;;;;5093639;28;20190;-73
2023/04/23 08:53:55;;;;;;;8.63;5.50;;;19.40;99.90;;;;;;5111763;28;20523;-72
2023/04/23 08:56:25;;;;;;;10.03;5.80;;;19.40;99.90;;;;;;5094216;28;20183;-73
2023/04/23 08:58:54;;;;;;;7.13;5.20;;;19.40;99.90;;;;;;5111297;28;20265;-72
2023/04/23 09:01:22;;;;;;;11.33;5.50;;;19.50;99.90;;;;;;5090144;28;20194;-72
2023/04/23 09:03:50;;;;;;;7.87;6.17;;;19.40;99.90;;;;;;5091116;28;20644;-73
2023/04/23 09:06:19;;;;;;;9.80;6.63;;;19.40;99.90;;;;;;5095475;28;20208;-74
2023/04/23 09:08:47;;;;;;;10.87;5.73;;;19.40;99.90;;;;;;5111424;28;20841;-72
2023/04/23 09:11:16;;;;;;;7.60;6.13;;;19.40;99.90;;;;;;5107461;28;20262;-72
2023/04/23 09:13:44;;;;;;;8.10;5.57;;;19.40;99.90;;;;;;5090719;28;20183;-69
2023/04/23 09:16:12;;;;;;;8.20;5.57;;;19.40;99.90;;;;;;5090807;28;20244;-73
2023/04/23 09:18:41;;;;;;;9.63;5.90;;;19.40;99.90;;;;;;5094952;28;20180;-73
2023/04/23 09:21:10;;;;;;;7.57;5.47;;;19.30;99.90;;;;;;5110588;28;20193;-72
2023/04/23 09:23:40;;;;;;;9.57;5.60;;;19.40;99.90;;;;;;5110054;28;20186;-74
2023/04/23 09:26:08;;;;;;;7.37;5.13;;;19.40;99.90;;;;;;5111055;28;20230;-71
2023/04/23 09:28:36;;;;;;;8.93;5.60;;;19.40;99.90;;;;;;5109460;28;20628;-72
2023/04/23 09:31:07;;;;;;;15.30;6.93;;;19.40;99.90;;;;;;5109374;28;20194;-70
2023/04/23 09:33:38;;;;;;;9.70;6.10;;;19.40;99.90;;;;;;5111400;28;20184;-71
2023/04/23 09:36:10;;;;;;;7.77;6.00;;;19.40;99.90;;;;;;5111343;28;20211;-68
2023/04/23 09:38:43;;;;;;;11.07;6.20;;;19.40;99.90;;;;;;5112491;28;20653;-69
2023/04/23 09:41:29;;;;;;;8.47;5.47;;;19.40;99.90;;;;;;5111505;28;20277;-68
2023/04/23 09:43:58;;;;;;;9.87;6.30;;;19.40;99.90;;;;;;5111779;28;20184;-71
2023/04/23 09:46:44;;;;;;;8.20;5.80;;;19.40;99.90;;;;;;5111153;28;20583;-70
2023/04/23 09:49:13;;;;;;;11.87;7.10;;;19.40;99.90;;;;;;5113948;28;21083;-72
2023/04/23 09:51:48;;;;;;;9.90;6.77;;;19.40;99.90;;;;;;5106323;28;20231;-70
2023/04/23 09:54:22;;;;;;;8.00;6.43;;;19.40;99.90;;;;;;5095877;28;20188;-70
2023/04/23 09:56:56;;;;;;;10.77;7.03;;;19.40;99.90;;;;;;5105582;28;20613;-71
2023/04/23 09:59:29;;;;;;;8.27;7.37;;;19.40;99.90;;;;;;5108113;28;20174;-70
2023/04/23 10:02:00;;;;;;;11.90;7.10;;;19.30;99.90;;;;;;5114589;28;20189;-71
2023/04/23 10:04:29;;;;;;;11.57;8.40;;;19.30;99.90;;;;;;5116118;28;20267;-72
2023/04/23 10:07:03;;;;;;;13.17;8.70;;;19.30;99.90;;;;;;5115801;28;20619;-72
2023/04/23 10:09:31;;;;;;;12.50;8.07;;;19.30;99.90;;;;;;5115760;28;20274;-72
2023/04/23 10:12:02;;;;;;;11.20;7.67;;;19.20;99.90;;;;;;5115764;28;20282;-71
2023/04/23 10:14:30;;;;;;;9.30;7.30;;;19.20;99.90;;;;;;5115702;28;20653;-70
2023/04/23 10:17:03;;;;;;;9.67;7.87;;;19.10;99.90;;;;;;5115738;28;20178;-71
2023/04/23 10:19:32;;;;;;;10.50;7.00;;;19.00;99.90;;;;;;5115439;27;20465;-72
2023/04/23 10:22:04;;;;;;;10.23;7.23;;;19.00;99.90;;;;;;5114241;28;20243;-72
2023/04/23 10:24:34;;;;;;;10.20;7.23;;;19.00;99.90;;;;;;5115217;28;20229;-71
2023/04/23 10:27:04;;;;;;;8.90;7.17;;;19.00;99.90;;;;;;5114134;28;20214;-72
2023/04/23 10:29:35;;;;;;;12.00;7.90;;;19.00;99.90;;;;;;5115330;28;20173;-71
2023/04/23 10:32:08;;;;;;;18.43;8.53;;;18.90;99.90;;;;;;5115558;28;20265;-73
2023/04/23 10:34:36;;;;;;;13.87;8.30;;;19.00;99.90;;;;;;5115405;28;20184;-71
2023/04/23 10:37:04;;;;;;;10.13;8.23;;;18.90;99.90;;;;;;5114926;28;20641;-70
2023/04/23 10:39:34;;;;;;;12.93;8.50;;;18.90;99.90;;;;;;5115168;28;20171;-70
2023/04/23 10:42:04;;;;;;;13.33;7.80;;;18.90;99.90;;;;;;5115138;28;20167;-70
2023/04/23 10:44:37;;;;;;;10.97;7.67;;;18.90;99.90;;;;;;5115177;28;20489;-72
2023/04/23 10:47:06;;;;;;;11.60;6.90;;;18.90;99.90;;;;;;5115120;28;20327;-72
2023/04/23 10:49:34;;;;;;;9.80;7.27;;;18.90;99.90;;;;;;5114670;27;20174;-71
2023/04/23 10:52:14;;;;;;;10.23;7.53;;;18.90;99.90;;;;;;5115241;28;20587;-72
2023/04/23 10:54:49;;;;;;;9.20;6.67;;;18.90;99.90;;;;;;5115117;28;20201;-71
2023/04/23 10:57:18;;;;;;;12.43;7.13;;;18.90;99.90;;;;;;5114536;28;20176;-71
2023/04/23 10:59:57;;;;;;;9.77;7.20;;;18.90;99.90;;;;;;5114864;28;20621;-73
2023/04/23 11:02:25;;;;;;;10.80;7.50;;;18.90;99.90;;;;;;5114787;28;20180;-70
2023/04/23 11:04:57;;;;;;;10.20;6.87;;;18.90;99.90;;;;;;5114935;28;20174;-69
2023/04/23 11:07:32;;;;;;;9.13;6.57;;;18.80;99.90;;;;;;5114834;28;20213;-72
2023/04/23 11:10:14;;;;;;;9.60;6.83;;;18.80;99.90;;;;;;5115324;28;20528;-73
2023/04/23 11:12:43;;;;;;;8.27;6.27;;;18.80;99.90;;;;;;5114993;28;20208;-70
2023/04/23 11:15:15;;;;;;;13.00;6.53;;;18.80;99.90;;;;;;5114483;28;20170;-71
2023/04/23 11:17:43;;;;;;;10.63;6.13;;;18.80;99.90;;;;;;5113269;28;20199;-71
2023/04/23 11:20:21;;;;;;;7.27;5.87;;;18.80;99.90;;;;;;5114697;28;20184;-70
2023/04/23 11:22:52;;;;;;;7.50;5.97;;;18.80;99.90;;;;;;5114731;28;20176;-72
2023/04/23 11:25:29;;;;;;;8.43;5.80;;;18.90;99.90;;;;;;5114149;28;20360;-71
2023/04/23 11:27:57;;;;;;;8.73;5.47;;;18.90;99.90;;;;;;5113224;28;20609;-71
2023/04/23 11:30:27;;;;;;;9.43;6.10;;;18.90;99.90;;;;;;5114668;28;20178;-71
2023/04/23 11:32:58;;;;;;;11.07;5.20;;;19.00;99.90;;;;;;5114603;28;20174;-70
2023/04/23 11:35:38;;;;;;;11.63;6.57;;;18.90;99.90;;;;;;5113170;28;20198;-71
2023/04/23 11:38:09;;;;;;;10.20;5.30;;;18.90;99.90;;;;;;5114256;28;20188;-70
2023/04/23 11:40:39;;;;;;;6.70;4.30;;;18.90;99.90;;;;;;5114195;28;20174;-71
2023/04/23 11:43:08;;;;;;;12.33;4.97;;;18.90;99.90;;;;;;5113879;28;20174;-70
2023/04/23 11:45:35;;;;;;;9.27;4.60;;;19.00;99.90;;;;;;5114055;28;20199;-68
2023/04/23 11:48:04;;;;;;;6.43;3.80;;;19.00;99.90;;;;;;5114192;28;20187;-71
2023/04/23 11:50:34;;;;;;;10.87;4.93;;;19.00;99.90;;;;;;5114007;27;20181;-72
2023/04/23 11:53:10;;;;;;;7.87;4.50;;;19.00;99.90;;;;;;5113694;28;20167;-71
2023/04/23 11:55:42;;;;;;;7.17;4.50;;;18.90;99.90;;;;;;5112440;28;20209;-69
2023/04/23 11:58:10;;;;;;;8.13;4.60;;;19.00;99.90;;;;;;5114101;28;20179;-73
2023/04/23 12:00:37;;;;;;;10.90;4.93;;;19.00;99.90;;;;;;5113458;28;20174;-71
2023/04/23 12:03:05;;;;;;;9.90;4.70;;;19.00;99.90;;;;;;5114033;27;20175;-70
2023/04/23 12:05:38;;;;;;;7.90;4.57;;;19.00;99.90;;;;;;5113815;28;20172;-70
2023/04/23 12:08:10;;;;;;;13.10;4.63;;;19.00;99.90;;;;;;5113922;28;20540;-71
2023/04/23 12:10:48;;;;;;;7.80;4.73;;;19.00;99.90;;;;;;5112992;28;20698;-69
2023/04/23 12:13:26;;;;;;;6.57;4.70;;;19.00;99.90;;;;;;5113786;28;20166;-70
2023/04/23 12:15:56;;;;;;;7.27;4.60;;;19.10;99.90;;;;;;5113339;28;20208;-71
2023/04/23 12:18:38;;;;;;;7.00;4.47;;;19.00;99.90;;;;;;5113538;28;20231;-69
2023/04/23 12:21:07;;;;;;;12.13;5.17;;;19.10;99.90;;;;;;5113576;28;20613;-71
2023/04/23 12:23:36;;;;;;;11.17;4.83;;;19.10;99.90;;;;;;5113551;28;20176;-72
2023/04/23 12:26:05;;;;;;;8.37;4.63;;;19.10;99.90;;;;;;5113170;28;20230;-71
2023/04/23 12:28:33;;;;;;;9.87;4.97;;;19.00;99.90;;;;;;5112153;28;20722;-73
2023/04/23 12:31:02;;;;;;;11.80;5.77;;;19.00;99.90;;;;;;5113166;28;20255;-71
2023/04/23 12:33:31;;;;;;;9.83;4.73;;;19.00;99.90;;;;;;5113507;28;20171;-72
2023/04/23 12:35:59;;;;;;;12.03;5.13;;;19.00;99.90;;;;;;5112953;28;20311;-72
2023/04/23 12:38:29;;;;;;;7.57;4.73;;;19.00;99.90;;;;;;5113439;28;20180;-71
2023/04/23 12:41:00;;;;;;;6.90;4.00;;;18.90;99.90;;;;;;5113216;28;20659;-72
2023/04/23 12:43:28;;;;;;;11.13;4.80;;;18.90;99.90;;;;;;5113261;28;20176;-70
2023/04/23 12:45:56;;;;;;;9.67;4.47;;;18.90;99.90;;;;;;5113118;28;20202;-72
2023/04/23 12:48:24;;;;;;;10.93;5.27;;;18.90;99.90;;;;;;5112917;28;20177;-71
2023/04/23 12:50:52;;;;;;;10.53;4.73;;;18.80;99.90;;;;;;5113166;28;20178;-72
2023/04/23 12:53:20;;;;;;;13.60;4.80;;;18.70;99.90;;;;;;5113096;28;20174;-71
2023/04/23 12:55:49;;;;;;;8.83;4.83;;;18.60;99.90;;;;;;5112963;28;20178;-69
2023/04/23 12:58:16;;;;;;;9.97;4.20;;;18.50;99.90;;;;;;5113214;28;20270;-72
2023/04/23 13:00:45;;;;;;;9.20;4.73;;;18.40;99.90;;;;;;5113101;28;20686;-73
2023/04/23 13:03:14;;;;;;;8.97;5.20;;;18.40;99.90;;;;;;5112777;28;20222;-71
2023/04/23 13:05:42;;;;;;;7.70;5.10;;;18.30;99.90;;;;;;5113038;28;20684;-72